Time;durP1;ratioP1;P1;durP2;ratioP2;P2;SDS_P1;SDS_P2;PMS_P1;PMS_P2;Temp;Humidity;BMP_temperature;BMP_pressure;BME280_temperature;BME280_humidity;BME280_pressure;Samples;Min_cycle;Max_cycle;Signal;HPM_P1;HPM_P2
2022/03/23 00:02:15;;;;;;;38.85;22.05;;;1.50;66.90;;;;;;5116735;27;20049;-77
2022/03/23 00:04:41;;;;;;;35.67;18.50;;;1.50;67.50;;;;;;5116973;27;20019;-76
2022/03/23 00:07:06;;;;;;;43.03;22.92;;;1.40;67.00;;;;;;5135010;27;20023;-76
2022/03/23 00:09:32;;;;;;;40.42;20.75;;;1.40;66.70;;;;;;5116835;27;20451;-76
2022/03/23 00:11:58;;;;;;;42.95;21.27;;;1.40;67.00;;;;;;5116751;27;20023;-76
2022/03/23 00:14:23;;;;;;;36.97;20.45;;;1.30;67.10;;;;;;5116575;27;20031;-76
2022/03/23 00:16:49;;;;;;;54.78;25.75;;;1.10;67.40;;;;;;5134860;27;20019;-76
2022/03/23 00:19:19;;;;;;;49.35;23.38;;;1.00;68.10;;;;;;5135031;27;20051;-76
2022/03/23 00:21:44;;;;;;;39.75;19.55;;;1.00;69.10;;;;;;5134816;27;20106;-76
2022/03/23 00:24:10;;;;;;;35.38;18.65;;;0.90;69.30;;;;;;5134743;27;20456;-77
2022/03/23 00:26:36;;;;;;;30.92;16.40;;;0.90;70.00;;;;;;5116136;27;20043;-76
2022/03/23 00:29:03;;;;;;;32.35;18.05;;;0.90;70.60;;;;;;5116402;27;20019;-77
2022/03/23 00:31:29;;;;;;;35.40;16.33;;;0.90;70.80;;;;;;5116294;27;20451;-76
2022/03/23 00:33:55;;;;;;;45.33;22.10;;;0.90;70.40;;;;;;5116307;27;20059;-76
2022/03/23 00:36:21;;;;;;;53.05;24.70;;;0.80;70.10;;;;;;5115839;27;20441;-76
2022/03/23 00:38:47;;;;;;;55.10;25.70;;;0.70;70.20;;;;;;5116245;27;20019;-76
2022/03/23 00:41:13;;;;;;;49.28;23.55;;;0.70;70.80;;;;;;5134722;27;20019;-76
2022/03/23 00:43:39;;;;;;;40.80;21.33;;;0.70;70.80;;;;;;5134745;27;20491;-76
2022/03/23 00:46:05;;;;;;;41.92;21.95;;;0.70;70.80;;;;;;5134290;27;20476;-79
2022/03/23 00:48:31;;;;;;;39.63;20.58;;;0.60;71.30;;;;;;5115989;27;20027;-78
2022/03/23 00:50:57;;;;;;;36.05;21.33;;;0.50;71.10;;;;;;5134480;27;20400;-79
2022/03/23 00:53:22;;;;;;;42.80;22.20;;;0.40;70.90;;;;;;5115792;27;20068;-79
2022/03/23 00:55:48;;;;;;;58.15;24.15;;;0.40;71.00;;;;;;5116005;27;20046;-80
2022/03/23 00:58:14;;;;;;;87.63;38.92;;;0.40;70.80;;;;;;5115590;27;20017;-79
2022/03/23 01:00:41;;;;;;;100.82;46.35;;;0.40;71.70;;;;;;5115994;27;20106;-79
2022/03/23 01:03:06;;;;;;;88.07;42.53;;;0.40;73.60;;;;;;5134090;27;20034;-79
2022/03/23 01:05:32;;;;;;;64.65;29.60;;;0.50;75.80;;;;;;5115864;27;20016;-80
2022/03/23 01:07:58;;;;;;;77.93;32.53;;;0.60;77.90;;;;;;5134030;27;20030;-78
2022/03/23 01:10:24;;;;;;;62.05;25.30;;;0.60;77.80;;;;;;5134029;27;20069;-79
2022/03/23 01:12:50;;;;;;;44.47;22.17;;;0.60;76.60;;;;;;5134006;27;20023;-79
2022/03/23 01:15:19;;;;;;;36.80;17.80;;;0.50;76.00;;;;;;5115696;28;20068;-79
2022/03/23 01:17:44;;;;;;;36.42;19.83;;;0.60;77.10;;;;;;5133852;27;20019;-79
2022/03/23 01:20:12;;;;;;;31.55;16.23;;;0.60;75.70;;;;;;5115353;27;20426;-79
2022/03/23 01:22:39;;;;;;;34.05;16.50;;;0.50;75.00;;;;;;5115535;28;20081;-78
2022/03/23 01:25:08;;;;;;;26.17;15.07;;;0.50;74.80;;;;;;5115526;28;20429;-78
2022/03/23 01:27:34;;;;;;;29.38;16.98;;;0.50;75.20;;;;;;5115334;28;20049;-78
2022/03/23 01:30:00;;;;;;;28.98;16.92;;;0.40;75.30;;;;;;5115581;28;20033;-78
2022/03/23 01:32:26;;;;;;;25.08;15.13;;;0.40;75.40;;;;;;5133920;27;20457;-78
2022/03/23 01:34:51;;;;;;;26.48;14.70;;;0.40;75.00;;;;;;5115393;28;20054;-78
2022/03/23 01:37:17;;;;;;;29.58;16.02;;;0.30;75.40;;;;;;5133664;27;20019;-78
2022/03/23 01:39:43;;;;;;;31.27;16.85;;;0.30;75.50;;;;;;5115385;28;20087;-78
2022/03/23 01:42:08;;;;;;;24.30;14.32;;;0.30;76.10;;;;;;5115203;28;20560;-78
2022/03/23 01:44:34;;;;;;;23.95;14.70;;;0.20;76.60;;;;;;5115457;28;20026;-78
2022/03/23 01:47:00;;;;;;;30.95;16.25;;;0.20;77.20;;;;;;5115021;28;20384;-78
2022/03/23 01:49:26;;;;;;;29.85;15.93;;;0.20;77.80;;;;;;5115306;28;20031;-78
2022/03/23 01:51:52;;;;;;;29.40;15.48;;;0.10;76.80;;;;;;5133837;27;20028;-79
2022/03/23 01:54:17;;;;;;;30.90;16.55;;;0.00;77.30;;;;;;5115081;28;20137;-78
2022/03/23 01:56:44;;;;;;;34.35;19.48;;;0.00;77.50;;;;;;5115293;28;20428;-78
2022/03/23 01:59:10;;;;;;;40.80;20.25;;;-0.20;78.50;;;;;;5133435;28;20476;-79
2022/03/23 02:01:37;;;;;;;33.45;18.52;;;-0.20;79.00;;;;;;5133506;27;20027;-78
2022/03/23 02:04:03;;;;;;;31.45;16.83;;;-0.30;80.00;;;;;;5116969;27;20392;-79
2022/03/23 02:06:29;;;;;;;37.78;20.15;;;-0.40;81.40;;;;;;5119042;27;20023;-78
2022/03/23 02:08:55;;;;;;;40.50;19.88;;;-0.40;81.20;;;;;;5119142;27;20068;-78
2022/03/23 02:11:20;;;;;;;54.72;24.90;;;-0.50;82.00;;;;;;5137392;27;20174;-78
2022/03/23 02:13:46;;;;;;;48.92;24.38;;;-0.40;82.20;;;;;;5119152;27;20019;-78
2022/03/23 02:16:11;;;;;;;42.55;20.13;;;-0.40;82.20;;;;;;5118843;27;20027;-79
2022/03/23 02:18:37;;;;;;;47.97;23.85;;;-0.40;80.60;;;;;;5118849;27;20384;-79
2022/03/23 02:21:03;;;;;;;51.53;23.50;;;-0.40;81.10;;;;;;5119050;27;20455;-79
2022/03/23 02:23:28;;;;;;;53.15;24.35;;;-0.40;80.90;;;;;;5118902;27;20047;-78
2022/03/23 02:26:00;;;;;;;46.97;22.42;;;-0.40;82.70;;;;;;5137350;27;20011;-79
2022/03/23 02:28:27;;;;;;;47.60;21.27;;;-0.30;85.50;;;;;;5118496;27;20520;-79
2022/03/23 02:30:54;;;;;;;38.38;20.05;;;-0.30;85.70;;;;;;5137159;27;20045;-78
2022/03/23 02:33:20;;;;;;;46.67;21.17;;;-0.40;84.10;;;;;;5136865;27;20055;-78
2022/03/23 02:35:48;;;;;;;41.30;20.20;;;-0.30;84.40;;;;;;5118713;27;20015;-79
2022/03/23 02:38:17;;;;;;;59.42;25.65;;;-0.30;86.60;;;;;;5118185;27;20068;-78
2022/03/23 02:40:44;;;;;;;48.13;23.55;;;-0.20;87.50;;;;;;5136976;27;20023;-79
2022/03/23 02:43:09;;;;;;;57.22;25.80;;;-0.30;86.40;;;;;;5118419;27;20099;-78
2022/03/23 02:45:35;;;;;;;61.58;26.58;;;-0.30;82.70;;;;;;5118712;27;20020;-78
2022/03/23 02:48:03;;;;;;;63.92;25.23;;;-0.40;82.80;;;;;;5118167;27;20020;-78
2022/03/23 02:50:29;;;;;;;73.13;28.45;;;-0.50;82.10;;;;;;5118306;27;20027;-79
2022/03/23 03:10:40;;;;;;;23.00;12.85;;;-0.70;87.10;;;;;;5115871;28;20100;-79
2022/03/23 03:13:05;;;;;;;24.52;13.90;;;-0.70;85.70;;;;;;5115790;28;20477;-78
2022/03/23 03:15:31;;;;;;;22.75;13.30;;;-0.80;84.90;;;;;;5097444;28;20027;-78
2022/03/23 03:18:00;;;;;;;21.42;12.98;;;-0.80;85.40;;;;;;5115760;28;20019;-78
2022/03/23 03:20:27;;;;;;;26.50;13.73;;;-0.80;84.80;;;;;;5097101;28;20023;-78
2022/03/23 03:22:53;;;;;;;28.13;13.77;;;-0.80;84.20;;;;;;5097157;28;20038;-78
2022/03/23 03:25:22;;;;;;;34.60;17.45;;;-0.90;83.50;;;;;;5097361;28;20020;-78
2022/03/23 03:27:48;;;;;;;42.08;18.63;;;-0.90;82.90;;;;;;5097120;28;20107;-79
2022/03/23 03:30:17;;;;;;;36.63;18.70;;;-1.10;82.60;;;;;;5096871;28;20458;-79
2022/03/23 03:32:44;;;;;;;30.02;15.90;;;-1.20;83.20;;;;;;5095032;28;20011;-78
2022/03/23 03:35:11;;;;;;;36.28;17.45;;;-1.20;83.00;;;;;;5095097;28;20100;-80
2022/03/23 03:37:39;;;;;;;33.30;17.40;;;-1.30;82.70;;;;;;5076843;28;20489;-79
2022/03/23 03:40:05;;;;;;;33.53;15.43;;;-1.30;83.20;;;;;;5094642;28;20016;-79
2022/03/23 03:42:31;;;;;;;30.38;15.75;;;-1.30;82.60;;;;;;5094717;28;20036;-78
2022/03/23 03:44:57;;;;;;;27.17;16.48;;;-1.30;83.40;;;;;;5094729;28;20035;-79
2022/03/23 03:47:23;;;;;;;21.23;13.93;;;-1.30;85.10;;;;;;5094699;28;20392;-78
2022/03/23 03:49:49;;;;;;;43.33;22.13;;;-1.30;86.70;;;;;;5076260;28;20028;-79
2022/03/23 03:52:15;;;;;;;34.60;18.40;;;-1.30;87.70;;;;;;5094431;28;20496;-79
2022/03/23 03:54:40;;;;;;;31.55;16.80;;;-1.30;86.20;;;;;;5076450;28;20059;-79
2022/03/23 03:57:07;;;;;;;34.15;17.08;;;-1.30;84.10;;;;;;5076361;28;20020;-78
2022/03/23 03:59:34;;;;;;;28.52;15.68;;;-1.40;82.70;;;;;;5110117;28;20030;-79
2022/03/23 04:02:00;;;;;;;32.97;14.10;;;-1.60;82.00;;;;;;5093123;28;20380;-79
2022/03/23 04:04:25;;;;;;;34.55;18.15;;;-1.60;82.80;;;;;;5076202;28;20136;-79
2022/03/23 04:06:51;;;;;;;34.42;17.42;;;-1.80;84.10;;;;;;5094079;28;20099;-78
2022/03/23 04:09:17;;;;;;;29.02;16.42;;;-1.90;85.80;;;;;;5094160;28;20050;-78
2022/03/23 04:11:43;;;;;;;35.78;15.43;;;-1.90;87.00;;;;;;5076123;28;20056;-78
2022/03/23 04:14:08;;;;;;;28.70;14.07;;;-1.90;86.40;;;;;;5075850;28;20413;-78
2022/03/23 04:16:34;;;;;;;25.23;13.77;;;-1.90;86.20;;;;;;5094338;28;20473;-78
2022/03/23 04:19:00;;;;;;;28.65;14.18;;;-1.80;86.30;;;;;;5094079;28;20024;-79
2022/03/23 04:21:26;;;;;;;34.55;15.85;;;-1.80;85.00;;;;;;5093837;28;20103;-78
2022/03/23 04:23:52;;;;;;;41.30;17.20;;;-1.80;84.10;;;;;;5094138;28;20028;-78
2022/03/23 04:26:17;;;;;;;32.25;14.90;;;-1.80;84.90;;;;;;5093084;28;20115;-79
2022/03/23 04:28:43;;;;;;;32.70;15.70;;;-1.90;84.90;;;;;;5093979;28;20016;-78
2022/03/23 04:31:08;;;;;;;30.08;15.23;;;-1.90;84.70;;;;;;5075496;28;20035;-79
2022/03/23 04:33:34;;;;;;;32.53;15.95;;;-1.90;83.00;;;;;;5118385;27;20457;-78
2022/03/23 04:35:59;;;;;;;27.80;14.48;;;-1.90;82.60;;;;;;5095986;28;20032;-78
2022/03/23 04:38:26;;;;;;;29.30;13.50;;;-2.00;81.90;;;;;;5114015;28;20023;-78
2022/03/23 04:40:52;;;;;;;25.15;12.45;;;-2.00;82.10;;;;;;5095618;28;20388;-78
2022/03/23 04:43:19;;;;;;;24.33;13.02;;;-2.00;83.40;;;;;;5113985;28;20442;-78
2022/03/23 04:45:44;;;;;;;22.58;12.45;;;-2.10;84.80;;;;;;5113917;28;20028;-79
2022/03/23 04:48:10;;;;;;;25.60;13.15;;;-2.10;85.10;;;;;;5113851;28;20020;-79
2022/03/23 04:50:36;;;;;;;22.70;12.60;;;-2.00;85.40;;;;;;5113668;28;20102;-79
2022/03/23 04:53:01;;;;;;;22.50;12.40;;;-2.00;84.70;;;;;;5095582;28;20566;-78
2022/03/23 04:55:27;;;;;;;26.45;13.02;;;-2.00;85.00;;;;;;5113779;28;20484;-78
2022/03/23 04:57:52;;;;;;;20.05;11.13;;;-2.00;84.70;;;;;;5113707;28;20392;-78
2022/03/23 05:00:20;;;;;;;20.05;11.82;;;-2.00;82.20;;;;;;5095076;28;20024;-79
2022/03/23 05:02:47;;;;;;;26.60;14.25;;;-2.10;81.60;;;;;;5094890;28;20045;-78
2022/03/23 05:05:13;;;;;;;23.10;12.45;;;-2.20;82.20;;;;;;5095489;28;20073;-78
2022/03/23 05:07:42;;;;;;;26.58;12.55;;;-2.20;82.80;;;;;;5113721;28;20064;-79
2022/03/23 05:10:08;;;;;;;27.50;14.68;;;-2.20;82.90;;;;;;5113656;28;20077;-79
2022/03/23 05:12:36;;;;;;;33.22;15.23;;;-2.20;83.90;;;;;;5095214;28;20426;-78
2022/03/23 05:15:04;;;;;;;30.45;14.65;;;-2.20;84.40;;;;;;5095245;28;20030;-78
2022/03/23 05:17:30;;;;;;;24.75;13.00;;;-2.20;85.30;;;;;;5112416;28;20050;-79
2022/03/23 05:19:59;;;;;;;23.13;11.40;;;-2.20;86.00;;;;;;5095221;28;20020;-78
2022/03/23 05:22:25;;;;;;;27.80;11.65;;;-2.10;87.40;;;;;;5111834;28;20036;-79
2022/03/23 05:24:50;;;;;;;27.85;11.73;;;-2.00;86.60;;;;;;5095401;28;20412;-81
2022/03/23 05:27:16;;;;;;;30.05;11.60;;;-1.90;85.60;;;;;;5112114;28;20088;-79
2022/03/23 05:29:43;;;;;;;18.95;10.82;;;-1.90;84.80;;;;;;5112689;28;20047;-78
2022/03/23 05:32:16;;;;;;;22.42;12.63;;;-1.70;84.70;;;;;;5076400;28;20091;-79
2022/03/23 05:34:44;;;;;;;;;;;-1.60;84.30;;;;;;5109894;28;20050;-78
2022/03/23 05:37:11;;;;;;;21.13;11.88;;;-1.50;83.60;;;;;;5094678;28;20398;-78
2022/03/23 05:39:37;;;;;;;24.63;11.57;;;-1.40;82.60;;;;;;5114202;28;20500;-78
2022/03/23 05:42:03;;;;;;;25.80;11.13;;;-1.30;82.30;;;;;;5097297;28;20028;-78
2022/03/23 05:44:29;;;;;;;25.17;13.32;;;-1.20;81.60;;;;;;5116004;28;20016;-78
2022/03/23 05:46:55;;;;;;;22.38;12.18;;;-1.00;81.60;;;;;;5097370;28;20019;-78
2022/03/23 05:49:21;;;;;;;24.10;11.13;;;-0.80;82.20;;;;;;5095973;28;20037;-78
2022/03/23 05:51:46;;;;;;;33.45;13.00;;;-0.60;82.40;;;;;;5114061;28;20059;-77
2022/03/23 05:54:12;;;;;;;25.25;14.10;;;-0.50;82.00;;;;;;5092523;28;20466;-76
2022/03/23 05:56:37;;;;;;;42.75;19.58;;;-0.30;82.40;;;;;;5095987;28;20011;-77
2022/03/23 05:59:03;;;;;;;47.35;22.05;;;-0.10;81.50;;;;;;5121704;27;20023;-76
2022/03/23 06:01:29;;;;;;;58.35;24.20;;;0.10;81.20;;;;;;5114645;28;20028;-76
2022/03/23 06:03:54;;;;;;;39.55;19.88;;;0.20;80.60;;;;;;5132041;27;20036;-77
2022/03/23 06:06:21;;;;;;;36.75;17.23;;;0.50;80.60;;;;;;5116148;27;20069;-76
2022/03/23 06:08:47;;;;;;;29.50;15.50;;;0.60;81.00;;;;;;5095861;28;20132;-76
2022/03/23 06:11:13;;;;;;;26.63;14.70;;;0.80;81.60;;;;;;5095167;28;20436;-77
2022/03/23 06:13:39;;;;;;;26.55;15.48;;;1.00;82.90;;;;;;5096987;28;20515;-76
2022/03/23 06:16:06;;;;;;;28.58;15.30;;;1.20;84.50;;;;;;5115690;28;20051;-76
2022/03/23 06:18:32;;;;;;;32.28;16.27;;;1.40;85.40;;;;;;5097521;28;20045;-76
2022/03/23 06:20:58;;;;;;;31.40;16.88;;;1.60;85.10;;;;;;5115606;28;20020;-76
2022/03/23 06:23:25;;;;;;;39.42;19.55;;;1.80;83.70;;;;;;5114841;28;20077;-77
2022/03/23 06:25:50;;;;;;;53.00;27.85;;;2.00;82.40;;;;;;5115904;28;20133;-76
2022/03/23 06:28:16;;;;;;;70.85;39.17;;;2.20;81.00;;;;;;5097796;28;20478;-77
2022/03/23 06:30:42;;;;;;;74.05;39.08;;;2.50;77.70;;;;;;5098038;28;20028;-77
2022/03/23 06:33:08;;;;;;;63.72;37.53;;;2.80;75.80;;;;;;5096603;28;20192;-77
2022/03/23 06:35:33;;;;;;;61.85;33.42;;;3.10;75.30;;;;;;5097358;28;20059;-77
2022/03/23 06:37:59;;;;;;;60.53;31.85;;;3.30;74.00;;;;;;5116172;28;20485;-81
2022/03/23 06:40:24;;;;;;;75.97;42.08;;;3.60;72.90;;;;;;5114869;28;20038;-82
2022/03/23 06:42:50;;;;;;;66.63;38.78;;;3.90;71.50;;;;;;5116127;28;20039;-81
2022/03/23 06:45:16;;;;;;;54.20;32.33;;;4.10;71.60;;;;;;5115041;28;20011;-79
2022/03/23 06:47:41;;;;;;;57.70;32.22;;;4.40;72.00;;;;;;5116310;28;20024;-78
2022/03/23 06:50:07;;;;;;;65.80;35.88;;;4.70;71.00;;;;;;5115829;28;20027;-81
2022/03/23 06:52:33;;;;;;;62.25;34.45;;;5.00;72.10;;;;;;5116124;28;20385;-82
2022/03/23 06:54:59;;;;;;;60.05;34.97;;;5.30;72.00;;;;;;5112357;28;20096;-78
2022/03/23 06:57:25;;;;;;;65.72;38.95;;;5.50;69.40;;;;;;5115565;28;20027;-78
2022/03/23 06:59:50;;;;;;;59.67;33.88;;;5.80;67.20;;;;;;5115145;28;20020;-78
2022/03/23 07:02:16;;;;;;;54.00;31.73;;;6.10;66.40;;;;;;5087803;28;20038;-78
2022/03/23 07:04:42;;;;;;;52.50;28.10;;;6.40;65.50;;;;;;5096356;28;20435;-79
2022/03/23 07:07:07;;;;;;;46.05;24.77;;;6.70;64.90;;;;;;5113506;28;20442;-79
2022/03/23 07:09:34;;;;;;;37.35;21.88;;;7.00;65.20;;;;;;5097616;28;20023;-79
2022/03/23 07:12:06;;;;;;;32.63;19.45;;;7.30;64.60;;;;;;5116045;28;20469;-83
2022/03/23 07:14:33;;;;;;;36.60;17.80;;;7.60;63.30;;;;;;5113783;28;20016;-83
2022/03/23 07:16:58;;;;;;;30.17;15.43;;;7.90;60.70;;;;;;5114993;28;20024;-83
2022/03/23 07:19:24;;;;;;;31.70;17.45;;;8.30;60.70;;;;;;5130884;27;20028;-82
2022/03/23 07:21:50;;;;;;;23.60;13.98;;;8.60;60.60;;;;;;5096510;28;20027;-83
2022/03/23 07:24:16;;;;;;;24.05;13.93;;;8.80;57.20;;;;;;5096363;28;20065;-79
2022/03/23 07:26:42;;;;;;;20.80;12.43;;;9.10;55.70;;;;;;5114865;28;20024;-83
2022/03/23 07:29:08;;;;;;;17.17;11.23;;;9.50;53.20;;;;;;5114997;28;20031;-83
2022/03/23 07:31:34;;;;;;;22.30;11.68;;;9.70;50.30;;;;;;5097285;28;20534;-79
2022/03/23 07:34:02;;;;;;;25.17;14.25;;;10.00;48.50;;;;;;5096950;28;20062;-83
2022/03/23 07:36:28;;;;;;;22.50;13.23;;;10.20;47.90;;;;;;5115671;28;20102;-80
2022/03/23 07:38:54;;;;;;;23.73;14.38;;;10.50;46.70;;;;;;5115634;28;20024;-83
2022/03/23 07:41:20;;;;;;;28.23;14.07;;;10.70;47.20;;;;;;5096907;28;20028;-84
2022/03/23 07:43:48;;;;;;;25.25;14.85;;;10.90;46.70;;;;;;5096975;28;20462;-80
2022/03/23 07:46:14;;;;;;;23.38;14.38;;;11.10;45.40;;;;;;5097166;28;20098;-80
2022/03/23 07:48:40;;;;;;;20.85;13.25;;;11.40;44.60;;;;;;5097078;28;20472;-84
2022/03/23 07:51:06;;;;;;;22.17;12.93;;;11.50;44.30;;;;;;5096763;28;20030;-84
2022/03/23 07:53:32;;;;;;;19.65;12.75;;;11.70;44.00;;;;;;5096699;28;20050;-80
2022/03/23 07:55:58;;;;;;;18.77;12.07;;;11.90;43.80;;;;;;5115226;28;20027;-84
2022/03/23 07:58:25;;;;;;;18.80;10.48;;;12.00;42.50;;;;;;5096804;28;20366;-84
2022/03/23 08:00:51;;;;;;;19.88;11.40;;;12.20;41.30;;;;;;5114282;28;20016;-84
2022/03/23 08:03:17;;;;;;;18.65;10.98;;;12.30;40.30;;;;;;5096151;28;20040;-80
2022/03/23 08:05:43;;;;;;;14.63;10.57;;;12.50;40.30;;;;;;5096661;28;20132;-84
2022/03/23 08:08:09;;;;;;;19.35;10.80;;;12.70;40.10;;;;;;5114901;28;20039;-82
2022/03/23 08:10:36;;;;;;;20.65;11.68;;;12.90;39.70;;;;;;5114910;28;20016;-80
2022/03/23 08:13:03;;;;;;;18.35;10.48;;;13.00;39.50;;;;;;5114714;28;20362;-84
2022/03/23 08:15:29;;;;;;;16.45;9.85;;;13.20;38.80;;;;;;5096322;28;20035;-84
2022/03/23 08:17:56;;;;;;;15.90;9.40;;;13.30;36.60;;;;;;5096404;28;20417;-80
2022/03/23 08:20:35;;;;;;;15.88;9.65;;;13.40;35.50;;;;;;5114644;28;20081;-84
2022/03/23 08:23:09;;;;;;;13.65;9.25;;;13.50;35.60;;;;;;5096127;28;20028;-84
2022/03/23 08:25:38;;;;;;;13.25;8.07;;;13.60;34.70;;;;;;5096260;28;20023;-84
2022/03/23 08:28:05;;;;;;;12.35;8.65;;;13.80;33.80;;;;;;5114600;28;20046;-80
2022/03/23 08:30:31;;;;;;;12.23;7.93;;;13.80;32.60;;;;;;5114693;28;20027;-84
2022/03/23 08:32:57;;;;;;;11.95;7.53;;;14.00;32.30;;;;;;5096050;28;20085;-84
2022/03/23 08:35:24;;;;;;;12.35;7.70;;;14.10;31.90;;;;;;5096039;28;20038;-84
2022/03/23 08:37:50;;;;;;;16.00;8.23;;;14.20;31.30;;;;;;5096374;28;20126;-80
2022/03/23 08:40:16;;;;;;;37.05;10.30;;;14.40;31.60;;;;;;5096068;28;20020;-84
2022/03/23 08:42:42;;;;;;;16.15;9.52;;;14.40;31.10;;;;;;5095782;28;20050;-84
2022/03/23 08:45:08;;;;;;;12.20;7.53;;;14.60;31.10;;;;;;5114261;28;20139;-84
2022/03/23 08:47:35;;;;;;;10.82;7.00;;;14.70;30.10;;;;;;5114137;28;20103;-80
2022/03/23 08:50:02;;;;;;;9.40;6.57;;;14.80;28.80;;;;;;5129964;27;20381;-80
2022/03/23 08:52:29;;;;;;;9.30;7.00;;;14.90;28.30;;;;;;5095926;28;20499;-80
2022/03/23 08:54:55;;;;;;;13.60;8.57;;;15.00;27.30;;;;;;5113926;28;20043;-80
2022/03/23 08:57:22;;;;;;;15.00;9.07;;;15.10;27.20;;;;;;5114229;28;20117;-80
2022/03/23 08:59:48;;;;;;;19.42;11.48;;;15.20;28.00;;;;;;5096136;28;20465;-80
2022/03/23 09:02:14;;;;;;;11.90;7.82;;;15.40;28.50;;;;;;5095533;28;20077;-84
2022/03/23 09:04:39;;;;;;;12.35;7.25;;;15.50;27.80;;;;;;5095451;28;20030;-84
2022/03/23 09:07:05;;;;;;;10.85;7.53;;;15.60;27.60;;;;;;5075512;28;20024;-80
2022/03/23 09:09:30;;;;;;;12.23;8.15;;;15.80;27.60;;;;;;5093575;28;20030;-82
2022/03/23 09:11:56;;;;;;;12.73;8.13;;;16.00;28.20;;;;;;5093160;28;20032;-80
2022/03/23 09:14:22;;;;;;;13.10;8.45;;;16.10;28.80;;;;;;5075007;28;20388;-80
2022/03/23 09:16:47;;;;;;;15.13;9.65;;;16.20;28.60;;;;;;5093378;28;20021;-80
2022/03/23 09:19:14;;;;;;;13.55;9.50;;;16.20;27.90;;;;;;5093209;28;20386;-84
2022/03/23 09:21:40;;;;;;;13.77;8.80;;;16.30;28.10;;;;;;5075489;28;20103;-84
2022/03/23 09:24:06;;;;;;;14.45;8.80;;;16.40;28.40;;;;;;5093301;28;20560;-84
2022/03/23 09:26:32;;;;;;;16.20;9.18;;;16.60;28.30;;;;;;5093172;28;20382;-84
2022/03/23 09:28:58;;;;;;;11.15;7.60;;;16.70;27.70;;;;;;5075137;28;20072;-84
2022/03/23 09:31:23;;;;;;;11.15;7.75;;;16.80;28.00;;;;;;5074936;28;20020;-84
2022/03/23 09:33:49;;;;;;;13.63;7.35;;;16.90;27.30;;;;;;5093241;28;20086;-84
2022/03/23 09:39:02;;;;;;;16.00;8.82;;;17.00;27.30;;;;;;5110870;28;20085;-84
2022/03/23 09:41:32;;;;;;;11.80;8.52;;;17.10;27.40;;;;;;5113310;28;20496;-85
2022/03/23 09:43:58;;;;;;;12.73;8.93;;;17.20;27.40;;;;;;5113319;28;20563;-80
2022/03/23 09:46:24;;;;;;;14.45;9.45;;;17.20;27.20;;;;;;5113095;28;20396;-80
2022/03/23 09:48:49;;;;;;;15.57;9.07;;;17.30;27.30;;;;;;5113423;28;20027;-80
2022/03/23 09:51:16;;;;;;;12.93;8.20;;;17.40;27.40;;;;;;5113225;28;20055;-80
2022/03/23 09:53:42;;;;;;;13.52;8.38;;;17.40;27.60;;;;;;5095213;28;20484;-80
2022/03/23 09:56:08;;;;;;;17.20;8.85;;;17.50;27.70;;;;;;5094810;28;20023;-81
2022/03/23 09:58:33;;;;;;;11.65;7.70;;;17.60;27.00;;;;;;5095034;28;20027;-80
2022/03/23 10:00:59;;;;;;;12.07;8.20;;;17.70;26.50;;;;;;5113286;28;20024;-80
2022/03/23 10:03:43;;;;;;;10.32;6.43;;;17.70;25.40;;;;;;5093998;28;20116;-84
2022/03/23 10:06:34;;;;;;;9.75;6.95;;;17.80;24.90;;;;;;5113039;28;20067;-80
2022/03/23 10:09:28;;;;;;;11.32;6.95;;;17.80;24.50;;;;;;5093500;28;20023;-80
2022/03/23 10:12:22;;;;;;;10.57;7.03;;;17.90;24.40;;;;;;5094790;28;20409;-84
2022/03/23 10:15:25;;;;;;;9.43;6.38;;;18.00;23.70;;;;;;5094941;28;20019;-84
2022/03/23 10:18:05;;;;;;;7.22;5.13;;;18.00;23.20;;;;;;5094861;28;20067;-84
2022/03/23 10:20:30;;;;;;;10.63;5.97;;;18.00;22.30;;;;;;5094932;28;20028;-80
2022/03/23 10:22:56;;;;;;;7.03;4.88;;;18.10;21.80;;;;;;5113027;28;20035;-84
2022/03/23 10:25:26;;;;;;;8.68;5.50;;;18.20;21.20;;;;;;5096750;28;20022;-80
2022/03/23 10:27:54;;;;;;;7.65;5.75;;;18.30;21.20;;;;;;5098556;28;20388;-85
2022/03/23 10:30:38;;;;;;;11.65;5.50;;;18.40;22.10;;;;;;5098574;28;20358;-85
2022/03/23 10:33:15;;;;;;;6.50;5.40;;;18.40;20.80;;;;;;5098297;28;20012;-84
2022/03/23 10:35:40;;;;;;;6.35;5.35;;;18.50;21.50;;;;;;5116562;28;20066;-85
2022/03/23 10:38:14;;;;;;;5.18;4.38;;;18.50;21.40;;;;;;5116577;28;20023;-80
2022/03/23 10:40:41;;;;;;;8.02;4.95;;;18.60;21.10;;;;;;5116516;28;20077;-85
2022/03/23 10:43:08;;;;;;;7.20;5.03;;;18.70;20.50;;;;;;5116433;28;20067;-84
2022/03/23 10:45:34;;;;;;;9.48;4.78;;;18.80;20.60;;;;;;5098368;28;20441;-84
2022/03/23 10:48:13;;;;;;;8.10;5.70;;;18.70;19.70;;;;;;5097983;28;20047;-84
2022/03/23 10:50:58;;;;;;;14.32;5.60;;;18.70;19.80;;;;;;5098301;28;20024;-84
2022/03/23 10:53:36;;;;;;;8.18;5.05;;;18.80;19.30;;;;;;5116416;28;20114;-84
2022/03/23 10:56:03;;;;;;;11.15;4.75;;;18.80;19.20;;;;;;5097844;28;20488;-84
2022/03/23 10:58:29;;;;;;;6.65;4.40;;;18.80;19.70;;;;;;5116342;28;20047;-85
2022/03/23 11:01:00;;;;;;;10.10;6.43;;;18.90;18.80;;;;;;5097905;28;20413;-81
2022/03/23 11:03:43;;;;;;;7.68;5.82;;;18.90;18.50;;;;;;5097995;28;20553;-84
2022/03/23 11:06:14;;;;;;;11.77;5.95;;;18.80;19.20;;;;;;5115874;28;20395;-83
2022/03/23 11:08:43;;;;;;;9.00;5.70;;;18.80;19.20;;;;;;5097863;28;20034;-83
2022/03/23 11:16:36;;;;;;;10.55;6.18;;;18.80;18.60;;;;;;5116310;28;20038;-79
2022/03/23 11:19:10;;;;;;;8.85;5.60;;;18.80;19.30;;;;;;5115839;28;20034;-79
2022/03/23 11:21:56;;;;;;;12.13;6.80;;;18.90;20.20;;;;;;5097928;28;20041;-83
2022/03/23 11:24:22;;;;;;;8.70;6.38;;;19.00;20.80;;;;;;5097598;28;20028;-79
2022/03/23 11:26:49;;;;;;;10.82;6.90;;;19.10;20.20;;;;;;5114305;28;20019;-83
2022/03/23 11:29:15;;;;;;;7.47;5.47;;;19.20;20.00;;;;;;5115639;28;20024;-79
2022/03/23 11:31:41;;;;;;;11.70;6.97;;;19.20;19.00;;;;;;5097360;28;20057;-79
2022/03/23 11:34:09;;;;;;;12.32;7.38;;;19.20;19.00;;;;;;5115197;28;20035;-83
2022/03/23 11:36:36;;;;;;;9.85;6.22;;;19.40;20.20;;;;;;5096832;28;20011;-79
2022/03/23 11:39:04;;;;;;;12.50;6.85;;;19.50;20.80;;;;;;5115285;28;20098;-79
2022/03/23 11:41:30;;;;;;;16.55;6.35;;;19.60;20.10;;;;;;5097452;28;20027;-79
2022/03/23 11:43:56;;;;;;;11.88;6.90;;;19.60;19.70;;;;;;5115326;28;20032;-84
2022/03/23 11:46:23;;;;;;;12.00;8.02;;;19.60;19.50;;;;;;5097143;28;20106;-79
2022/03/23 11:49:07;;;;;;;9.02;6.63;;;19.60;19.30;;;;;;5096871;28;20508;-79
2022/03/23 11:51:47;;;;;;;11.73;6.88;;;19.50;19.10;;;;;;5097057;28;20028;-83
2022/03/23 11:54:23;;;;;;;10.57;6.90;;;19.50;20.40;;;;;;5096976;28;20473;-79
2022/03/23 11:56:57;;;;;;;14.18;7.15;;;19.50;20.80;;;;;;5096785;28;20358;-79
2022/03/23 11:59:27;;;;;;;10.18;6.53;;;19.50;20.90;;;;;;5096674;28;20077;-83
2022/03/23 12:01:54;;;;;;;11.57;6.50;;;19.30;19.70;;;;;;5096598;28;20358;-79
2022/03/23 12:04:22;;;;;;;10.68;6.55;;;19.30;18.20;;;;;;5114987;28;20051;-79
2022/03/23 12:07:04;;;;;;;13.07;7.10;;;19.30;18.30;;;;;;5096671;28;20028;-83
2022/03/23 12:09:36;;;;;;;15.88;7.32;;;19.30;18.40;;;;;;5096793;28;20384;-78
2022/03/23 12:12:24;;;;;;;12.82;7.20;;;19.50;18.60;;;;;;5114798;28;20024;-79
2022/03/23 12:14:50;;;;;;;11.88;8.43;;;19.70;19.00;;;;;;5114186;28;20102;-79
2022/03/23 12:17:26;;;;;;;13.20;7.25;;;19.70;18.80;;;;;;5096062;28;20115;-84
2022/03/23 12:19:53;;;;;;;17.20;7.70;;;19.70;19.90;;;;;;5114704;28;20019;-79
2022/03/23 12:22:35;;;;;;;18.90;9.05;;;19.80;19.60;;;;;;5095865;28;20127;-83
2022/03/23 12:25:09;;;;;;;15.30;9.52;;;19.90;19.40;;;;;;5095913;28;20385;-79
2022/03/23 12:27:55;;;;;;;8.70;6.65;;;20.00;18.80;;;;;;5114325;28;20073;-79
2022/03/23 12:30:26;;;;;;;8.65;5.70;;;19.90;18.10;;;;;;5114473;28;20462;-84
2022/03/23 12:32:56;;;;;;;10.00;6.25;;;19.90;17.60;;;;;;5095792;28;20095;-79
2022/03/23 12:35:33;;;;;;;12.30;6.32;;;19.80;17.20;;;;;;5114347;28;20019;-84
2022/03/23 12:38:00;;;;;;;11.70;6.40;;;19.90;17.40;;;;;;5095849;28;20217;-83
2022/03/23 12:40:39;;;;;;;14.70;8.27;;;19.80;16.50;;;;;;5095971;28;20055;-83
2022/03/23 12:43:05;;;;;;;13.15;7.57;;;19.90;17.40;;;;;;5095761;28;20066;-79
2022/03/23 12:45:39;;;;;;;12.55;7.75;;;20.00;17.50;;;;;;5114390;28;20433;-79
2022/03/23 12:57:49;;;;;;;44.17;19.25;;;20.00;17.30;;;;;;5113376;28;20024;-79
2022/03/23 12:59:20;;;;;;;13.55;6.97;;;20.20;17.40;;;;;;5112886;28;20496;-79
2022/03/23 13:01:53;;;;;;;13.75;8.35;;;20.10;17.50;;;;;;5095391;28;20057;-85
2022/03/23 13:04:40;;;;;;;13.27;8.02;;;20.10;17.60;;;;;;5095504;28;20464;-79
2022/03/23 13:07:27;;;;;;;19.88;9.70;;;20.10;18.40;;;;;;5095331;28;20432;-78
2022/03/23 13:09:56;;;;;;;16.55;8.63;;;20.10;18.30;;;;;;5095155;28;20020;-84
2022/03/23 13:12:26;;;;;;;14.10;8.25;;;20.20;18.60;;;;;;5095150;28;20024;-79